Time;durP1;ratioP1;P1;durP2;ratioP2;P2;SDS_P1;SDS_P2;PMS_P1;PMS_P2;Temp;Humidity;BMP_temperature;BMP_pressure;BME280_temperature;BME280_humidity;BME280_pressure;Samples;Min_cycle;Max_cycle;Signal;HPM_P1;HPM_P2
2023/04/24 00:02:12;;;;;;;;;;;;;;;9.92;100.00;95510.34;5056795;28;19964;-79
2023/04/24 00:04:44;;;;;;;;;;;;;;;9.88;100.00;95498.75;5056636;28;19938;-79
2023/04/24 00:07:14;;;;;;;;;;;;;;;9.83;99.98;95506.53;5056163;28;19945;-84
2023/04/24 00:09:39;;;;;;;;;;;;;;;9.82;100.00;95499.69;5056632;28;20010;-80
2023/04/24 00:12:05;;;;;;;;;;;;;;;9.81;100.00;95501.53;5056561;28;19946;-79
2023/04/24 00:14:31;;;;;;;;;;;;;;;9.82;100.00;95500.47;5057153;28;19939;-72
2023/04/24 00:16:57;;;;;;;;;;;;;;;9.81;100.00;95500.72;5055270;28;19969;-72
2023/04/24 00:19:23;;;;;;;;;;;;;;;9.80;100.00;95512.22;5056729;28;20029;-75
2023/04/24 00:21:49;;;;;;;;;;;;;;;9.81;100.00;95516.44;5056359;28;19953;-74
2023/04/24 00:24:16;;;;;;;;;;;;;;;9.77;100.00;95505.63;5055116;28;19944;-74
2023/04/24 00:26:42;;;;;;;;;;;;;;;9.75;100.00;95515.56;5055175;28;19945;-76
2023/04/24 00:29:08;;;;;;;;;;;;;;;9.72;100.00;95505.53;5055015;28;19939;-74
2023/04/24 00:31:36;;;;;;;;;;;;;;;9.70;100.00;95497.94;5055091;28;19931;-74
2023/04/24 00:34:03;;;;;;;;;;;;;;;9.68;100.00;95501.78;5055029;28;20417;-72
2023/04/24 00:36:30;;;;;;;;;;;;;;;9.70;100.00;95502.34;5056123;28;19963;-74
2023/04/24 00:38:56;;;;;;;;;;;;;;;9.72;100.00;95497.69;5055990;28;19933;-73
2023/04/24 00:41:24;;;;;;;;;;;;;;;9.74;100.00;95490.38;5054885;28;19953;-75
2023/04/24 00:43:50;;;;;;;;;;;;;;;9.75;100.00;95492.00;5054769;28;20413;-74
2023/04/24 00:46:16;;;;;;;;;;;;;;;9.77;100.00;95497.00;5055264;28;19941;-73
2023/04/24 00:48:43;;;;;;;;;;;;;;;9.76;100.00;95496.19;5054785;28;20398;-74
2023/04/24 00:51:09;;;;;;;;;;;;;;;9.72;100.00;95495.88;5055243;28;19935;-77
2023/04/24 00:53:35;;;;;;;;;;;;;;;9.71;100.00;95496.09;5055781;28;19946;-74
2023/04/24 00:56:02;;;;;;;;;;;;;;;9.66;100.00;95478.50;5037929;28;20045;-72
2023/04/24 00:58:28;;;;;;;;;;;;;;;9.64;100.00;95487.59;5055721;28;19942;-73
2023/04/24 01:00:55;;;;;;;;;;;;;;;9.62;100.00;95487.84;5056447;28;19963;-73
2023/04/24 01:03:22;;;;;;;;;;;;;;;9.65;100.00;95476.88;5056111;28;19957;-73
2023/04/24 01:05:49;;;;;;;;;;;;;;;9.64;100.00;95472.69;5055559;28;19940;-74
2023/04/24 01:08:15;;;;;;;;;;;;;;;9.63;100.00;95465.06;5055586;28;19955;-73
2023/04/24 01:10:41;;;;;;;;;;;;;;;9.62;100.00;95468.72;5055606;28;19942;-77
2023/04/24 01:13:07;;;;;;;;;;;;;;;9.62;100.00;95473.97;5055090;28;19944;-76
2023/04/24 01:15:34;;;;;;;;;;;;;;;9.63;100.00;95478.16;5054115;28;19972;-79
2023/04/24 01:18:00;;;;;;;;;;;;;;;9.61;100.00;95470.53;5055402;28;19949;-76
2023/04/24 01:20:26;;;;;;;;;;;;;;;9.63;100.00;95467.69;5038334;28;19943;-76
2023/04/24 01:22:54;;;;;;;;;;;;;;;9.64;100.00;95466.66;5055762;28;19962;-77
2023/04/24 01:25:20;;;;;;;;;;;;;;;9.66;100.00;95468.03;5054660;28;19954;-76
2023/04/24 01:27:46;;;;;;;;;;;;;;;9.71;100.00;95475.16;5037367;28;19942;-76
2023/04/24 01:30:12;;;;;;;;;;;;;;;9.74;100.00;95466.81;5054776;28;20279;-72
2023/04/24 01:32:38;;;;;;;;;;;;;;;9.75;100.00;95465.81;5053961;28;19944;-72
2023/04/24 01:35:05;;;;;;;;;;;;;;;9.77;100.00;95463.75;5054190;28;20406;-72
2023/04/24 01:37:32;;;;;;;;;;;;;;;9.79;100.00;95464.31;5054986;28;19957;-73
2023/04/24 01:39:58;;;;;;;;;;;;;;;9.84;100.00;95463.59;5037125;28;19946;-72
2023/04/24 01:42:24;;;;;;;;;;;;;;;9.86;100.00;95459.69;5054321;28;20422;-73
2023/04/24 01:44:51;;;;;;;;;;;;;;;9.88;100.00;95469.94;5037889;28;19939;-72
2023/04/24 01:47:16;;;;;;;;;;;;;;;9.86;100.00;95472.78;5053669;28;20273;-76
2023/04/24 01:49:42;;;;;;;;;;;;;;;9.79;100.00;95464.31;5054054;28;19997;-72
2023/04/24 01:52:08;;;;;;;;;;;;;;;9.75;100.00;95452.72;5054752;28;19934;-73
2023/04/24 01:54:34;;;;;;;;;;;;;;;9.72;100.00;95461.84;5053937;28;20295;-73
2023/04/24 01:57:02;;;;;;;;;;;;;;;9.70;100.00;95439.53;5055141;28;19953;-73
2023/04/24 01:59:27;;;;;;;;;;;;;;;9.69;100.00;95456.28;5053366;28;19951;-73
2023/04/24 02:01:53;;;;;;;;;;;;;;;9.70;100.00;95455.22;5054456;28;19966;-74
2023/04/24 02:04:19;;;;;;;;;;;;;;;9.65;100.00;95453.31;5054549;28;19943;-71
2023/04/24 02:06:45;;;;;;;;;;;;;;;9.65;100.00;95465.63;5053555;28;19934;-73
2023/04/24 02:09:11;;;;;;;;;;;;;;;9.66;100.00;95454.13;5054707;28;20023;-73
2023/04/24 02:11:37;;;;;;;;;;;;;;;9.68;100.00;95467.75;5053996;28;19988;-73
2023/04/24 02:14:03;;;;;;;;;;;;;;;9.70;100.00;95468.31;5054185;28;20305;-72
2023/04/24 02:16:32;;;;;;;;;;;;;;;9.71;100.00;95462.84;5054067;28;20375;-72
2023/04/24 02:18:58;;;;;;;;;;;;;;;9.68;100.00;95460.72;5054668;28;19953;-72
2023/04/24 02:21:25;;;;;;;;;;;;;;;9.64;100.00;95458.78;5054048;28;20038;-73
2023/04/24 02:23:50;;;;;;;;;;;;;;;9.59;100.00;95461.34;5054683;28;19940;-76
2023/04/24 02:26:17;;;;;;;;;;;;;;;9.53;100.00;95458.63;5053702;28;19989;-71
2023/04/24 02:28:43;;;;;;;;;;;;;;;9.50;100.00;95459.09;5037075;28;19949;-70
2023/04/24 02:31:09;;;;;;;;;;;;;;;9.51;100.00;95458.09;5053314;28;19952;-71
2023/04/24 02:33:35;;;;;;;;;;;;;;;9.53;100.00;95463.06;5054209;28;19954;-72
2023/04/24 02:36:01;;;;;;;;;;;;;;;9.53;100.00;95461.25;5053870;28;20429;-72
2023/04/24 02:38:27;;;;;;;;;;;;;;;9.52;100.00;95459.66;5052787;28;19973;-71
2023/04/24 02:40:53;;;;;;;;;;;;;;;9.47;100.00;95470.03;5053814;28;19937;-72
2023/04/24 02:43:19;;;;;;;;;;;;;;;9.42;100.00;95464.69;5053746;28;19978;-71
2023/04/24 02:45:45;;;;;;;;;;;;;;;9.38;100.00;95458.34;5053857;28;19953;-74
2023/04/24 02:48:11;;;;;;;;;;;;;;;9.36;100.00;95457.78;5054406;28;19991;-75
2023/04/24 02:50:36;;;;;;;;;;;;;;;9.35;100.00;95474.53;5053799;28;19954;-74
2023/04/24 02:53:02;;;;;;;;;;;;;;;9.32;100.00;95467.13;5054220;28;19938;-74
2023/04/24 02:55:28;;;;;;;;;;;;;;;9.27;100.00;95461.81;5054274;28;19935;-73
2023/04/24 02:57:54;;;;;;;;;;;;;;;9.19;100.00;95456.97;5053548;28;19970;-75
2023/04/24 03:00:20;;;;;;;;;;;;;;;9.17;100.00;95459.00;5051655;28;19939;-77
2023/04/24 03:02:46;;;;;;;;;;;;;;;9.17;100.00;95453.78;5052268;28;20011;-82
2023/04/24 03:05:12;;;;;;;;;;;;;;;9.13;100.00;95449.03;5035700;28;20031;-76
2023/04/24 03:07:38;;;;;;;;;;;;;;;9.11;100.00;95453.69;5054390;28;19985;-74
2023/04/24 03:10:05;;;;;;;;;;;;;;;9.11;100.00;95445.84;5053516;28;19936;-73
2023/04/24 03:12:31;;;;;;;;;;;;;;;9.09;100.00;95458.38;5053978;28;19941;-75
2023/04/24 03:14:57;;;;;;;;;;;;;;;9.02;100.00;95452.44;5053249;28;19988;-76
2023/04/24 03:17:23;;;;;;;;;;;;;;;8.99;100.00;95455.53;5054522;28;19943;-74
2023/04/24 03:19:49;;;;;;;;;;;;;;;8.96;100.00;95444.75;5053503;28;20423;-78
2023/04/24 03:22:14;;;;;;;;;;;;;;;8.93;100.00;95444.19;5035629;28;20426;-83
2023/04/24 03:24:40;;;;;;;;;;;;;;;8.92;100.00;95445.22;5052963;28;20040;-83
2023/04/24 03:27:06;;;;;;;;;;;;;;;8.91;100.00;95430.53;5035527;28;20407;-82
2023/04/24 03:29:32;;;;;;;;;;;;;;;8.88;100.00;95436.25;5035504;28;19946;-82
2023/04/24 03:31:58;;;;;;;;;;;;;;;8.87;100.00;95433.88;5035496;28;20419;-81
2023/04/24 03:34:24;;;;;;;;;;;;;;;8.85;100.00;95420.22;5053315;28;19943;-82
2023/04/24 03:36:50;;;;;;;;;;;;;;;8.86;100.00;95422.63;5053197;28;19957;-70
2023/04/24 03:39:15;;;;;;;;;;;;;;;8.87;100.00;95429.41;5052450;28;20011;-71
2023/04/24 03:41:41;;;;;;;;;;;;;;;8.88;100.00;95432.81;5053212;28;20029;-73
2023/04/24 03:44:07;;;;;;;;;;;;;;;8.88;100.00;95432.81;5053832;28;19991;-73
2023/04/24 03:46:33;;;;;;;;;;;;;;;8.89;100.00;95435.22;5052742;28;19943;-75
2023/04/24 03:48:59;;;;;;;;;;;;;;;8.91;100.00;95435.78;5053158;28;20394;-73
2023/04/24 03:51:25;;;;;;;;;;;;;;;8.93;100.00;95443.41;5053618;28;19942;-73
2023/04/24 03:53:51;;;;;;;;;;;;;;;8.94;100.00;95445.78;5053001;28;19970;-73
2023/04/24 03:56:16;;;;;;;;;;;;;;;8.98;100.00;95437.47;5053140;28;19941;-72
2023/04/24 03:58:42;;;;;;;;;;;;;;;9.00;100.00;95448.50;5035870;28;19949;-73
2023/04/24 04:01:08;;;;;;;;;;;;;;;9.02;100.00;95456.91;5052538;28;19941;-74
2023/04/24 04:03:34;;;;;;;;;;;;;;;9.03;100.00;95461.09;5052795;28;20053;-74
2023/04/24 04:06:00;;;;;;;;;;;;;;;9.05;100.00;95467.69;5052101;28;19940;-74
2023/04/24 04:08:26;;;;;;;;;;;;;;;9.06;100.00;95469.28;5052376;28;19998;-74
2023/04/24 04:10:52;;;;;;;;;;;;;;;9.08;100.00;95474.28;5054731;28;19985;-74
2023/04/24 04:13:18;;;;;;;;;;;;;;;9.10;100.00;95480.84;5057046;28;19945;-75
2023/04/24 04:15:43;;;;;;;;;;;;;;;9.11;100.00;95484.25;5039113;28;19975;-79
2023/04/24 04:18:09;;;;;;;;;;;;;;;9.10;100.00;95485.31;5039498;28;19947;-71
2023/04/24 04:20:35;;;;;;;;;;;;;;;9.08;100.00;95490.75;5055919;28;19941;-71
2023/04/24 04:23:01;;;;;;;;;;;;;;;9.08;100.00;95489.97;5056992;28;19958;-71
2023/04/24 04:25:27;;;;;;;;;;;;;;;9.04;100.00;95494.84;5056417;28;19940;-71
2023/04/24 04:27:53;;;;;;;;;;;;;;;9.00;100.00;95498.97;5055959;28;20400;-72
2023/04/24 04:30:20;;;;;;;;;;;;;;;9.00;100.00;95506.00;5056393;28;20384;-71
2023/04/24 04:32:46;;;;;;;;;;;;;;;8.97;100.00;95501.25;5055030;28;19946;-73
2023/04/24 04:35:12;;;;;;;;;;;;;;;8.95;100.00;95504.09;5038499;28;20410;-77
2023/04/24 04:37:39;;;;;;;;;;;;;;;8.96;100.00;95497.81;5039081;28;19957;-77
2023/04/24 04:40:06;;;;;;;;;;;;;;;9.00;100.00;95508.63;5056299;28;20005;-77
2023/04/24 04:42:33;;;;;;;;;;;;;;;9.05;100.00;95516.56;5055857;28;19959;-77
2023/04/24 04:45:00;;;;;;;;;;;;;;;9.05;100.00;95522.63;5055923;28;19948;-76
2023/04/24 04:47:26;;;;;;;;;;;;;;;9.02;100.00;95524.88;5056031;28;19949;-78
2023/04/24 04:49:52;;;;;;;;;;;;;;;8.98;100.00;95524.53;5055773;28;19944;-80
2023/04/24 04:52:18;;;;;;;;;;;;;;;8.90;100.00;95525.72;5056254;28;19949;-73
2023/04/24 04:54:44;;;;;;;;;;;;;;;8.85;100.00;95535.25;5056476;28;19947;-82
2023/04/24 04:57:10;;;;;;;;;;;;;;;8.85;100.00;95530.03;5055331;28;19947;-84
2023/04/24 04:59:37;;;;;;;;;;;;;;;8.84;100.00;95544.09;5037745;28;19941;-82
2023/04/24 05:02:02;;;;;;;;;;;;;;;8.81;100.00;95540.13;5054129;28;20044;-82
2023/04/24 05:04:28;;;;;;;;;;;;;;;8.78;100.00;95545.84;5053879;28;19939;-81
2023/04/24 05:06:54;;;;;;;;;;;;;;;8.79;100.00;95547.41;5037667;28;19945;-82
2023/04/24 05:09:20;;;;;;;;;;;;;;;8.85;100.00;95561.41;5037688;28;19944;-71
2023/04/24 05:11:46;;;;;;;;;;;;;;;8.90;100.00;95564.13;5053709;28;19950;-70
2023/04/24 05:14:12;;;;;;;;;;;;;;;8.95;100.00;95572.09;5053998;28;19931;-71
2023/04/24 05:16:38;;;;;;;;;;;;;;;8.97;100.00;95575.25;5053247;28;19974;-70
2023/04/24 05:19:04;;;;;;;;;;;;;;;8.98;100.00;95576.84;5053177;28;19956;-71
2023/04/24 05:21:31;;;;;;;;;;;;;;;8.98;100.00;95579.47;5052700;28;20341;-71
2023/04/24 05:23:56;;;;;;;;;;;;;;;8.98;100.00;95571.59;5052596;28;19963;-71
2023/04/24 05:26:23;;;;;;;;;;;;;;;8.96;100.00;95578.88;5053217;28;19946;-71
2023/04/24 05:28:49;;;;;;;;;;;;;;;8.93;100.00;95587.22;5053301;28;19945;-76
2023/04/24 05:31:17;;;;;;;;;;;;;;;8.94;100.00;95575.72;5053187;28;19946;-74
2023/04/24 05:33:43;;;;;;;;;;;;;;;8.96;100.00;95591.19;5054348;28;19942;-74
2023/04/24 05:36:09;;;;;;;;;;;;;;;8.99;100.00;95598.56;5037231;28;19960;-75
2023/04/24 05:38:35;;;;;;;;;;;;;;;9.00;100.00;95600.94;5055010;28;19943;-74
2023/04/24 05:41:00;;;;;;;;;;;;;;;9.04;100.00;95596.84;5054615;28;20022;-75
2023/04/24 05:43:26;;;;;;;;;;;;;;;9.06;100.00;95597.41;5053515;28;20057;-75
2023/04/24 05:45:53;;;;;;;;;;;;;;;9.09;100.00;95598.78;5055551;28;20407;-74
2023/04/24 05:48:19;;;;;;;;;;;;;;;9.12;100.00;95606.19;5054832;28;19954;-73
2023/04/24 05:50:47;;;;;;;;;;;;;;;9.15;100.00;95613.56;5055112;28;19943;-72
2023/04/24 05:53:12;;;;;;;;;;;;;;;9.14;100.00;95604.91;5054339;28;19938;-72
2023/04/24 05:55:38;;;;;;;;;;;;;;;9.16;100.00;95604.69;5054686;28;19945;-72
2023/04/24 05:58:04;;;;;;;;;;;;;;;9.19;100.00;95598.22;5055290;28;19985;-72
2023/04/24 06:00:30;;;;;;;;;;;;;;;9.27;100.00;95601.25;5053230;28;19951;-72
2023/04/24 06:02:56;;;;;;;;;;;;;;;9.73;100.00;95598.78;5054336;28;19964;-73
2023/04/24 06:05:22;;;;;;;;;;;;;;;10.66;98.24;95586.22;5054476;28;20467;-83
2023/04/24 06:07:48;;;;;;;;;;;;;;;11.49;91.77;95557.44;5053359;28;19943;-73
2023/04/24 06:10:14;;;;;;;;;;;;;;;12.05;88.41;95540.69;5053851;28;19949;-72
2023/04/24 06:12:40;;;;;;;;;;;;;;;12.70;89.49;95557.22;5054991;28;20007;-73
2023/04/24 06:15:06;;;;;;;;;;;;;;;12.72;85.55;95529.63;5052760;28;19997;-73
2023/04/24 06:17:32;;;;;;;;;;;;;;;12.53;87.32;95552.13;5054617;28;19954;-73
2023/04/24 06:19:58;;;;;;;;;;;;;;;12.75;90.18;95567.81;5054660;28;20395;-72
2023/04/24 06:22:24;;;;;;;;;;;;;;;13.28;89.71;95568.63;5036084;28;19951;-71
2023/04/24 06:24:50;;;;;;;;;;;;;;;13.72;81.69;95497.16;5054250;28;19974;-73
2023/04/24 06:27:16;;;;;;;;;;;;;;;13.67;76.11;95457.66;5054084;28;20052;-83
2023/04/24 06:29:42;;;;;;;;;;;;;;;13.27;77.91;95480.16;5054521;28;19945;-79
2023/04/24 06:32:07;;;;;;;;;;;;;;;12.81;79.58;95503.66;5054296;28;19945;-79
2023/04/24 06:34:34;;;;;;;;;;;;;;;12.79;82.75;95526.78;5053903;28;19953;-83
2023/04/24 06:37:00;;;;;;;;;;;;;;;12.55;83.38;95548.19;5054238;28;19969;-81
2023/04/24 06:39:26;;;;;;;;;;;;;;;12.18;84.83;95572.63;5053854;28;20019;-81
2023/04/24 06:41:51;;;;;;;;;;;;;;;11.82;87.90;95583.78;5053914;28;19946;-73
2023/04/24 06:44:17;;;;;;;;;;;;;;;11.51;90.05;95602.59;5054309;28;19966;-72
2023/04/24 06:46:43;;;;;;;;;;;;;;;11.26;92.76;95615.41;5054390;28;20008;-72
2023/04/24 06:49:09;;;;;;;;;;;;;;;11.02;93.39;95618.22;5053690;28;20320;-72
2023/04/24 06:51:35;;;;;;;;;;;;;;;10.74;88.21;95585.03;5054489;28;19987;-72
2023/04/24 06:54:01;;;;;;;;;;;;;;;10.49;89.81;95604.56;5053669;28;19944;-72
2023/04/24 06:56:28;;;;;;;;;;;;;;;10.33;91.51;95618.44;5053721;28;20422;-72
2023/04/24 06:58:54;;;;;;;;;;;;;;;10.19;90.26;95615.31;5052419;28;19955;-77
2023/04/24 07:01:20;;;;;;;;;;;;;;;10.02;92.37;95638.06;5053025;28;20340;-80
2023/04/24 07:03:46;;;;;;;;;;;;;;;9.76;94.19;95642.78;5052227;28;20017;-70
2023/04/24 07:06:12;;;;;;;;;;;;;;;9.62;95.31;95657.19;5053581;28;19946;-70
2023/04/24 07:08:38;;;;;;;;;;;;;;;9.54;96.64;95659.13;5036551;28;19955;-70
2023/04/24 07:11:04;;;;;;;;;;;;;;;9.55;95.15;95646.81;5053470;28;19951;-70
2023/04/24 07:13:30;;;;;;;;;;;;;;;9.66;97.03;95647.81;5054053;28;20403;-70
2023/04/24 07:15:56;;;;;;;;;;;;;;;9.78;94.61;95643.38;5053301;28;19968;-70
2023/04/24 07:18:22;;;;;;;;;;;;;;;10.00;94.80;95648.78;5053525;28;19953;-81
2023/04/24 07:20:50;;;;;;;;;;;;;;;10.39;91.38;95642.94;5053137;28;19936;-80
2023/04/24 07:23:16;;;;;;;;;;;;;;;10.53;88.55;95628.50;5035420;28;19968;-81
2023/04/24 07:25:42;;;;;;;;;;;;;;;10.49;85.76;95619.50;5036455;28;19948;-81
2023/04/24 07:28:08;;;;;;;;;;;;;;;10.43;86.46;95626.50;5036307;28;19953;-81
2023/04/24 07:30:34;;;;;;;;;;;;;;;10.41;85.56;95623.31;5052121;28;20421;-81
2023/04/24 07:33:00;;;;;;;;;;;;;;;10.54;85.68;95630.88;5054078;28;19993;-80
2023/04/24 07:35:26;;;;;;;;;;;;;;;10.71;83.38;95615.16;5035510;28;20368;-80
2023/04/24 07:37:55;;;;;;;;;;;;;;;10.84;81.80;95598.31;5035374;28;19962;-77
2023/04/24 07:40:21;;;;;;;;;;;;;;;10.86;83.21;95609.34;5051986;28;19948;-74
2023/04/24 07:42:48;;;;;;;;;;;;;;;10.84;80.72;95597.50;5036073;28;19960;-74
2023/04/24 07:45:14;;;;;;;;;;;;;;;10.90;83.22;95617.53;5053697;28;19938;-74
2023/04/24 07:47:45;;;;;;;;;;;;;;;10.82;81.92;95608.25;5057098;28;20389;-74
2023/04/24 07:50:12;;;;;;;;;;;;;;;10.65;81.21;95610.88;5057054;28;20394;-74
2023/04/24 07:52:38;;;;;;;;;;;;;;;10.61;84.08;95643.84;5056936;28;20370;-74
2023/04/24 07:55:04;;;;;;;;;;;;;;;10.68;84.52;95646.28;5056924;28;19957;-73
2023/04/24 07:57:31;;;;;;;;;;;;;;;10.80;83.18;95635.75;5056591;28;19946;-72
2023/04/24 07:59:57;;;;;;;;;;;;;;;10.76;80.66;95630.97;5057121;28;20036;-72
2023/04/24 08:02:26;;;;;;;;;;;;;;;10.63;80.13;95618.19;5055640;28;19950;-71
2023/04/24 08:04:53;;;;;;;;;;;;;;;10.43;78.24;95609.97;5057551;28;19954;-72
2023/04/24 08:07:19;;;;;;;;;;;;;;;10.45;78.07;95611.31;5057277;28;19934;-72
2023/04/24 08:09:45;;;;;;;;;;;;;;;10.62;77.10;95613.94;5056737;28;19950;-71
2023/04/24 08:12:11;;;;;;;;;;;;;;;10.86;76.31;95592.81;5057434;28;19943;-72
2023/04/24 08:14:37;;;;;;;;;;;;;;;11.24;76.67;95614.88;5056598;28;19941;-73
2023/04/24 08:17:03;;;;;;;;;;;;;;;11.49;75.07;95586.31;5056488;28;19972;-71
2023/04/24 08:19:29;;;;;;;;;;;;;;;11.67;71.28;95564.19;5038789;28;19951;-70
2023/04/24 08:21:55;;;;;;;;;;;;;;;11.64;68.52;95548.13;5055412;28;20311;-71
2023/04/24 08:24:20;;;;;;;;;;;;;;;11.36;70.65;95568.31;5056002;28;19957;-70
2023/04/24 08:26:50;;;;;;;;;;;;;;;11.57;69.63;95577.22;5038554;28;19946;-70
2023/04/24 08:29:16;;;;;;;;;;;;;;;12.04;67.91;95557.50;5055980;28;19951;-71
2023/04/24 08:31:41;;;;;;;;;;;;;;;12.29;64.41;95531.44;5039336;28;20423;-75
2023/04/24 08:34:07;;;;;;;;;;;;;;;12.21;65.75;95568.69;5038421;28;19947;-78
2023/04/24 08:36:33;;;;;;;;;;;;;;;11.90;66.27;95672.69;5038330;28;20005;-75
2023/04/24 08:38:59;;;;;;;;;;;;;;;11.57;66.61;95690.13;5055702;28;19948;-74
2023/04/24 08:41:26;;;;;;;;;;;;;;;11.31;67.70;95702.09;5056119;28;19940;-74
2023/04/24 08:43:53;;;;;;;;;;;;;;;11.14;69.25;95704.72;5056249;28;19955;-74
2023/04/24 08:46:19;;;;;;;;;;;;;;;11.14;69.31;95709.97;5056824;28;19936;-74
2023/04/24 08:48:45;;;;;;;;;;;;;;;11.23;70.54;95715.63;5056838;28;19939;-73
2023/04/24 08:51:11;;;;;;;;;;;;;;;11.17;66.56;95698.97;5056376;28;19945;-72
2023/04/24 08:53:37;;;;;;;;;;;;;;;11.04;67.23;95702.72;5038122;28;19946;-72
2023/04/24 08:56:03;;;;;;;;;;;;;;;11.25;66.06;95705.66;5056441;28;19970;-72
2023/04/24 08:58:30;;;;;;;;;;;;;;;11.55;65.64;95698.25;5053764;28;19981;-72
2023/04/24 09:00:57;;;;;;;;;;;;;;;11.78;63.57;95684.09;5055428;28;20332;-73
2023/04/24 09:03:23;;;;;;;;;;;;;;;11.95;65.08;95694.56;5055697;28;19964;-72
2023/04/24 09:05:50;;;;;;;;;;;;;;;12.10;64.13;95698.44;5037877;28;19942;-71
2023/04/24 09:08:17;;;;;;;;;;;;;;;12.24;61.40;95683.88;5055328;28;19941;-71
2023/04/24 09:10:43;;;;;;;;;;;;;;;12.44;61.28;95685.91;5038538;28;19947;-72
2023/04/24 09:13:10;;;;;;;;;;;;;;;12.57;61.12;95692.59;5054241;28;19947;-72
2023/04/24 09:15:36;;;;;;;;;;;;;;;12.59;61.35;95686.03;5054754;28;19966;-71
2023/04/24 09:18:02;;;;;;;;;;;;;;;12.67;61.82;95711.09;5055454;28;19943;-72
2023/04/24 09:20:28;;;;;;;;;;;;;;;12.80;59.92;95697.53;5055425;28;19940;-72
2023/04/24 09:22:55;;;;;;;;;;;;;;;12.93;59.08;95727.13;5055922;28;19987;-71
2023/04/24 09:25:21;;;;;;;;;;;;;;;12.88;54.40;95706.03;5054041;28;19946;-71
2023/04/24 09:27:47;;;;;;;;;;;;;;;12.90;56.05;95717.09;5054664;28;19955;-71
2023/04/24 09:30:13;;;;;;;;;;;;;;;12.97;57.34;95722.94;5037298;28;19946;-73
2023/04/24 09:32:40;;;;;;;;;;;;;;;12.88;53.73;95725.25;5054499;28;19962;-74
2023/04/24 09:35:13;;;;;;;;;;;;;;;13.00;52.67;95725.88;5055078;28;19948;-72
2023/04/24 09:37:41;;;;;;;;;;;;;;;13.06;54.44;95742.50;5054533;28;19957;-73
2023/04/24 09:40:17;;;;;;;;;;;;;;;13.18;54.14;95751.00;5054702;28;19945;-73
2023/04/24 09:42:44;;;;;;;;;;;;;;;13.20;52.15;95758.66;5055055;28;19944;-72
2023/04/24 09:45:13;;;;;;;;;;;;;;;13.27;50.01;95743.47;5054945;28;19959;-76
2023/04/24 09:47:40;;;;;;;;;;;;;;;13.36;50.56;95743.81;5053613;28;19961;-71
2023/04/24 09:50:09;;;;;;;;;;;;;;;13.46;50.70;95759.69;5037812;28;19951;-77
2023/04/24 09:52:35;;;;;;;;;;;;;;;13.68;51.21;95766.69;5037777;28;19960;-76
2023/04/24 09:55:01;;;;;;;;;;;;;;;13.57;51.05;95761.34;5053703;28;19938;-76
2023/04/24 09:57:27;;;;;;;;;;;;;;;13.29;51.20;95772.19;5054068;28;19950;-76
2023/04/24 09:59:53;;;;;;;;;;;;;;;13.14;50.65;95778.88;5037613;28;19950;-76
2023/04/24 10:02:19;;;;;;;;;;;;;;;12.94;52.67;95791.88;5053943;28;19938;-76
2023/04/24 10:04:56;;;;;;;;;;;;;;;12.79;53.23;95795.16;5053394;28;19974;-70
2023/04/24 10:07:25;;;;;;;;;;;;;;;12.57;52.71;95806.47;5053851;28;19942;-77
2023/04/24 10:09:51;;;;;;;;;;;;;;;12.32;54.15;95817.47;5037032;28;19950;-78
2023/04/24 10:12:17;;;;;;;;;;;;;;;12.20;54.77;95816.81;5054081;28;19998;-78
2023/04/24 10:14:44;;;;;;;;;;;;;;;12.37;56.60;95825.44;5053916;28;19957;-76
2023/04/24 10:17:11;;;;;;;;;;;;;;;12.53;55.54;95809.84;5054123;28;19972;-77
2023/04/24 10:19:38;;;;;;;;;;;;;;;12.58;57.55;95823.84;5053118;28;19962;-78
2023/04/24 10:22:04;;;;;;;;;;;;;;;12.53;54.91;95809.84;5053008;28;19952;-71
2023/04/24 10:24:31;;;;;;;;;;;;;;;12.34;56.49;95819.88;5053000;28;19960;-74
2023/04/24 10:26:57;;;;;;;;;;;;;;;12.17;56.27;95833.84;5052996;28;20406;-71
2023/04/24 10:29:24;;;;;;;;;;;;;;;12.15;58.53;95848.28;5036193;28;19950;-71
2023/04/24 10:31:50;;;;;;;;;;;;;;;12.42;58.52;95844.97;5053911;28;19951;-71
2023/04/24 10:34:18;;;;;;;;;;;;;;;12.35;57.79;95845.94;5052736;28;19947;-71
2023/04/24 10:36:50;;;;;;;;;;;;;;;12.21;58.38;95860.47;5054323;28;20326;-71
2023/04/24 10:39:16;;;;;;;;;;;;;;;11.96;59.41;95856.44;5053439;28;19944;-72
2023/04/24 10:41:42;;;;;;;;;;;;;;;11.95;60.07;95861.94;5053449;28;19942;-72
2023/04/24 10:44:10;;;;;;;;;;;;;;;11.86;59.51;95860.72;5052638;28;20003;-77
2023/04/24 10:46:36;;;;;;;;;;;;;;;11.76;60.05;95858.75;5036716;28;19943;-76
2023/04/24 10:49:07;;;;;;;;;;;;;;;11.70;60.76;95857.06;5035872;28;19944;-78
2023/04/24 10:51:44;;;;;;;;;;;;;;;11.79;59.59;95847.75;5035818;28;19947;-76
2023/04/24 10:54:27;;;;;;;;;;;;;;;11.76;59.29;95848.25;5036620;28;19949;-76
2023/04/24 10:57:13;;;;;;;;;;;;;;;11.72;59.64;95850.53;5052495;28;19947;-76
2023/04/24 10:59:39;;;;;;;;;;;;;;;11.64;60.56;95869.31;5036446;28;20319;-70
2023/04/24 11:02:06;;;;;;;;;;;;;;;11.60;61.01;95864.78;5035801;28;20039;-71
2023/04/24 11:04:33;;;;;;;;;;;;;;;11.53;60.31;95873.63;5052850;28;19959;-72
2023/04/24 11:06:59;;;;;;;;;;;;;;;11.46;60.96;95875.56;5053172;28;19958;-71
2023/04/24 11:09:30;;;;;;;;;;;;;;;11.49;60.41;95871.72;5054308;28;19944;-71
2023/04/24 11:12:10;;;;;;;;;;;;;;;11.54;61.36;95867.31;5052121;28;19942;-71
2023/04/24 11:14:54;;;;;;;;;;;;;;;11.50;60.94;95876.69;5053983;28;19943;-71
2023/04/24 11:17:37;;;;;;;;;;;;;;;11.41;59.77;95891.25;5053332;28;19943;-70
2023/04/24 11:20:09;;;;;;;;;;;;;;;11.27;61.07;95900.44;5036837;28;20307;-74
2023/04/24 11:22:35;;;;;;;;;;;;;;;11.06;62.71;95910.56;5057646;28;19945;-74
2023/04/24 11:25:02;;;;;;;;;;;;;;;10.83;62.80;95916.69;5058304;28;19960;-75
2023/04/24 11:27:30;;;;;;;;;;;;;;;10.85;63.82;95916.47;5058403;28;19961;-74
2023/04/24 11:29:55;;;;;;;;;;;;;;;11.14;63.92;95907.56;5057823;28;19941;-75
2023/04/24 11:32:38;;;;;;;;;;;;;;;11.35;62.73;95908.75;5058000;28;19944;-74
2023/04/24 11:35:05;;;;;;;;;;;;;;;11.49;62.66;95898.75;5057431;28;20313;-76
2023/04/24 11:37:38;;;;;;;;;;;;;;;11.70;60.65;95897.25;5056284;28;19965;-73
2023/04/24 11:40:05;;;;;;;;;;;;;;;11.78;60.53;95886.38;5057296;28;19949;-79
2023/04/24 11:42:38;;;;;;;;;;;;;;;12.02;61.02;95895.94;5056984;28;19947;-79
2023/04/24 11:45:11;;;;;;;;;;;;;;;12.02;59.40;95903.81;5055953;28;20028;-78
2023/04/24 11:47:37;;;;;;;;;;;;;;;11.92;60.52;95893.94;5057203;28;19943;-79
2023/04/24 11:50:04;;;;;;;;;;;;;;;11.85;60.33;95901.97;5057406;28;19948;-79
2023/04/24 11:52:30;;;;;;;;;;;;;;;11.72;59.28;95897.03;5055993;28;20333;-79
2023/04/24 11:54:56;;;;;;;;;;;;;;;11.68;60.51;95904.59;5055882;28;19946;-73
2023/04/24 11:57:26;;;;;;;;;;;;;;;11.76;60.60;95904.19;5057661;28;20396;-73
2023/04/24 11:59:52;;;;;;;;;;;;;;;11.80;61.31;95909.78;5055723;28;19937;-72
2023/04/24 12:02:25;;;;;;;;;;;;;;;11.65;59.45;95899.00;5055587;28;20465;-73
2023/04/24 12:04:51;;;;;;;;;;;;;;;11.51;60.25;95911.66;5055446;28;19969;-73
2023/04/24 12:07:17;;;;;;;;;;;;;;;11.37;61.15;95917.19;5055591;28;19942;-73
2023/04/24 12:09:45;;;;;;;;;;;;;;;11.27;61.91;95922.25;5055494;28;19944;-73
2023/04/24 12:12:12;;;;;;;;;;;;;;;11.21;63.09;95917.94;5056966;28;19963;-75
2023/04/24 12:14:45;;;;;;;;;;;;;;;11.09;62.94;95930.31;5038968;28;20408;-78
2023/04/24 12:17:11;;;;;;;;;;;;;;;11.02;62.86;95929.63;5055340;28;19968;-75
2023/04/24 12:19:37;;;;;;;;;;;;;;;10.96;62.33;95921.69;5055342;28;19967;-74
2023/04/24 12:22:04;;;;;;;;;;;;;;;11.01;63.29;95918.34;5056160;28;20390;-75
2023/04/24 12:24:30;;;;;;;;;;;;;;;11.07;63.39;95921.88;5056411;28;19968;-75
2023/04/24 12:26:57;;;;;;;;;;;;;;;11.01;65.21;95939.34;5055162;28;19944;-75
2023/04/24 12:29:24;;;;;;;;;;;;;;;10.95;69.44;95940.28;5056918;28;19943;-77
2023/04/24 12:31:51;;;;;;;;;;;;;;;10.94;73.76;95929.00;5055688;28;20401;-74
2023/04/24 12:34:18;;;;;;;;;;;;;;;11.10;74.48;95947.66;5056881;28;19944;-72
2023/04/24 12:36:44;;;;;;;;;;;;;;;11.47;74.81;95934.16;5054960;28;20320;-72
2023/04/24 12:39:19;;;;;;;;;;;;;;;11.88;70.98;95913.81;5056204;28;19954;-73
2023/04/24 12:41:56;;;;;;;;;;;;;;;12.01;69.29;95918.81;5054984;28;19954;-72
2023/04/24 12:44:48;;;;;;;;;;;;;;;11.94;66.43;95895.28;5056925;28;19959;-73
2023/04/24 12:47:14;;;;;;;;;;;;;;;11.83;66.94;95903.25;5054216;28;19951;-73